アロフィ の空港の天気 - METARとTAF

ニウエ国際空港 ( NIUE / IUE ) - ニウエ アロフィ
飛行場実況気象(Metar)
観測時間08/07 15:00 NUT (08/08 02:00 UTC)
風向・風速南南西 3m/s
視程-
天気現象
-
気温24℃
湿度69%
気圧1012hPa
METARNIUE 080200Z AUTO 20006KT 180V250 //// // ///////// 24/18 Q1012
過去の天気等 Google飛行場航空写真 Wunderground天気予報

過去48時間のMETAR

飛行場予報(TAF)
データがありません